Time;durP1;ratioP1;P1;durP2;ratioP2;P2;SDS_P1;SDS_P2;PMS_P1;PMS_P2;Temp;Humidity;BMP_temperature;BMP_pressure;BME280_temperature;BME280_humidity;BME280_pressure;Samples;Min_cycle;Max_cycle;Signal;HPM_P1;HPM_P2
2020/12/30 00:00:50;;;;;;;13.70;7.83;;;;;;;;;;4412269;32;20177;-84
2020/12/30 00:03:16;;;;;;;8.00;4.43;;;;;;;;;;4421832;32;20485;-84
2020/12/30 00:05:46;;;;;;;10.83;5.33;;;;;;;;;;4420979;32;20327;-85
2020/12/30 00:08:22;;;;;;;7.53;5.10;;;;;;;;;;4421453;32;20599;-85
2020/12/30 00:10:51;;;;;;;9.23;5.23;;;;;;;;;;4421342;32;20626;-84
2020/12/30 00:13:22;;;;;;;8.37;5.87;;;;;;;;;;4422291;32;20157;-84
2020/12/30 00:16:01;;;;;;;10.70;5.77;;;;;;;;;;4421455;32;20161;-84
2020/12/30 00:18:29;;;;;;;9.43;6.23;;;;;;;;;;4422043;32;20196;-84
2020/12/30 00:20:58;;;;;;;9.93;6.57;;;;;;;;;;4421656;32;20162;-84
2020/12/30 00:23:32;;;;;;;10.77;6.63;;;;;;;;;;4421737;32;20166;-85
2020/12/30 00:25:58;;;;;;;15.10;6.17;;;;;;;;;;4420413;32;20238;-84
2020/12/30 00:28:29;;;;;;;11.03;6.70;;;;;;;;;;4406395;32;20157;-84
2020/12/30 00:30:57;;;;;;;13.43;6.63;;;;;;;;;;4406456;32;20188;-84
2020/12/30 00:33:23;;;;;;;14.07;6.50;;;;;;;;;;4406747;32;20215;-84
2020/12/30 00:35:50;;;;;;;13.40;7.37;;;;;;;;;;4419493;32;20162;-84
2020/12/30 00:38:16;;;;;;;11.67;6.70;;;;;;;;;;4423646;32;20222;-85
2020/12/30 00:40:41;;;;;;;12.23;6.53;;;;;;;;;;4420567;32;20580;-84
2020/12/30 00:43:09;;;;;;;12.47;6.90;;;;;;;;;;4420882;32;20216;-85
2020/12/30 00:45:43;;;;;;;14.87;6.40;;;;;;;;;;4420590;32;20165;-84
2020/12/30 00:48:08;;;;;;;14.73;7.70;;;;;;;;;;4421137;32;20203;-84
2020/12/30 00:50:42;;;;;;;14.10;7.47;;;;;;;;;;4420613;32;20185;-84
2020/12/30 00:53:08;;;;;;;13.57;7.07;;;;;;;;;;4420664;32;20184;-84
2020/12/30 00:55:38;;;;;;;14.77;6.87;;;;;;;;;;4420739;32;20220;-84
2020/12/30 00:58:18;;;;;;;15.33;7.50;;;;;;;;;;4420832;32;20184;-85
2020/12/30 01:00:43;;;;;;;17.33;7.50;;;;;;;;;;4420655;32;20244;-84
2020/12/30 01:03:12;;;;;;;17.97;8.67;;;;;;;;;;4420324;32;20154;-84
2020/12/30 01:05:45;;;;;;;17.70;7.87;;;;;;;;;;4407594;32;20565;-85
2020/12/30 01:08:16;;;;;;;13.93;7.27;;;;;;;;;;4420540;32;20157;-85
2020/12/30 01:10:43;;;;;;;15.17;7.87;;;;;;;;;;4420343;32;20157;-84
2020/12/30 01:13:15;;;;;;;18.50;8.60;;;;;;;;;;4420127;32;20162;-84
2020/12/30 01:15:47;;;;;;;19.00;9.13;;;;;;;;;;4421210;32;20158;-85
2020/12/30 01:18:16;;;;;;;14.80;8.40;;;;;;;;;;4420632;32;20153;-84
2020/12/30 01:20:44;;;;;;;16.97;8.83;;;;;;;;;;4420020;32;20183;-84
2020/12/30 01:23:09;;;;;;;17.60;8.70;;;;;;;;;;4420045;32;20158;-84
2020/12/30 01:25:37;;;;;;;19.07;8.80;;;;;;;;;;4419995;32;20200;-84
2020/12/30 01:28:28;;;;;;;20.13;10.07;;;;;;;;;;4421191;32;20156;-84
2020/12/30 01:31:04;;;;;;;18.50;9.50;;;;;;;;;;4420626;32;20187;-84
2020/12/30 01:33:39;;;;;;;23.07;9.27;;;;;;;;;;4420579;32;20470;-84
2020/12/30 01:36:11;;;;;;;21.47;10.27;;;;;;;;;;4419883;32;20164;-84
2020/12/30 01:38:36;;;;;;;18.97;10.37;;;;;;;;;;4408309;32;20230;-84
2020/12/30 01:41:11;;;;;;;18.57;9.17;;;;;;;;;;4420366;32;20166;-84
2020/12/30 01:43:44;;;;;;;20.67;9.53;;;;;;;;;;4420115;32;20183;-84
2020/12/30 01:46:09;;;;;;;22.67;9.30;;;;;;;;;;4420065;32;20154;-85
2020/12/30 01:48:37;;;;;;;22.93;9.87;;;;;;;;;;4419644;32;20238;-84
2020/12/30 01:51:02;;;;;;;23.67;10.10;;;;;;;;;;4419530;32;20219;-84
2020/12/30 01:53:28;;;;;;;22.57;9.73;;;;;;;;;;4419904;32;20166;-83
2020/12/30 01:55:54;;;;;;;19.73;9.80;;;;;;;;;;4407209;32;20161;-84
2020/12/30 01:58:28;;;;;;;21.40;9.17;;;;;;;;;;4420707;32;20202;-84
2020/12/30 02:00:59;;;;;;;21.57;10.33;;;;;;;;;;4419928;32;20234;-84
2020/12/30 02:03:28;;;;;;;20.70;9.90;;;;;;;;;;4421389;32;20528;-84
2020/12/30 02:05:57;;;;;;;19.37;9.83;;;;;;;;;;4419410;32;20180;-85
2020/12/30 02:08:29;;;;;;;19.30;10.10;;;;;;;;;;4419689;32;20166;-84
2020/12/30 02:11:00;;;;;;;18.37;9.80;;;;;;;;;;4420228;32;20158;-84
2020/12/30 02:13:34;;;;;;;15.43;9.07;;;;;;;;;;4419610;32;20162;-84
2020/12/30 02:16:03;;;;;;;18.53;8.87;;;;;;;;;;4419532;32;20157;-84
2020/12/30 02:18:34;;;;;;;20.43;9.97;;;;;;;;;;4419483;32;20180;-85
2020/12/30 02:20:59;;;;;;;20.47;9.77;;;;;;;;;;4419626;32;20219;-84
2020/12/30 02:23:28;;;;;;;19.43;9.53;;;;;;;;;;4420072;32;20154;-85
2020/12/30 02:25:53;;;;;;;23.83;10.37;;;;;;;;;;4421131;32;20169;-82
2020/12/30 02:28:21;;;;;;;22.03;9.50;;;;;;;;;;4431793;32;20162;-83
2020/12/30 02:30:49;;;;;;;24.23;10.70;;;;;;;;;;4425902;32;20189;-84
2020/12/30 02:33:21;;;;;;;22.30;9.57;;;;;;;;;;4419389;32;20157;-84
2020/12/30 02:35:52;;;;;;;20.93;10.40;;;;;;;;;;4419404;32;20654;-84
2020/12/30 02:38:24;;;;;;;23.27;10.87;;;;;;;;;;4419313;32;20299;-84
2020/12/30 02:40:52;;;;;;;21.73;10.73;;;;;;;;;;4419469;32;20210;-85
2020/12/30 02:43:23;;;;;;;23.07;11.20;;;;;;;;;;4419114;32;20182;-84
2020/12/30 02:45:49;;;;;;;22.50;10.33;;;;;;;;;;4419777;32;20166;-85
2020/12/30 02:48:24;;;;;;;23.33;10.37;;;;;;;;;;4421196;32;20156;-84
2020/12/30 02:50:56;;;;;;;24.83;10.97;;;;;;;;;;4419589;32;20158;-84
2020/12/30 02:53:24;;;;;;;19.77;9.60;;;;;;;;;;4419895;32;20154;-84
2020/12/30 02:55:55;;;;;;;20.00;9.23;;;;;;;;;;4426457;32;20184;-84
2020/12/30 02:58:32;;;;;;;16.83;9.60;;;;;;;;;;4424833;32;20153;-84
2020/12/30 03:01:16;;;;;;;20.10;9.67;;;;;;;;;;4420766;32;20205;-84
2020/12/30 03:03:48;;;;;;;19.83;9.27;;;;;;;;;;4422244;32;20157;-85
2020/12/30 03:06:27;;;;;;;19.97;9.27;;;;;;;;;;4438726;32;20208;-84
2020/12/30 03:08:54;;;;;;;23.63;10.03;;;;;;;;;;4424343;32;20292;-84
2020/12/30 03:11:21;;;;;;;18.77;9.90;;;;;;;;;;4424800;32;20161;-84
2020/12/30 03:13:52;;;;;;;19.60;9.80;;;;;;;;;;4424477;32;20222;-84
2020/12/30 03:16:26;;;;;;;17.23;9.30;;;;;;;;;;4425078;32;20185;-85
2020/12/30 03:18:59;;;;;;;17.20;9.30;;;;;;;;;;4424030;32;20177;-84
2020/12/30 03:21:32;;;;;;;17.30;8.97;;;;;;;;;;4424426;32;20209;-84
2020/12/30 03:23:58;;;;;;;17.57;8.87;;;;;;;;;;4424725;32;20538;-84
2020/12/30 03:26:28;;;;;;;18.53;9.20;;;;;;;;;;4415238;32;20173;-84
2020/12/30 03:29:08;;;;;;;16.77;8.40;;;;;;;;;;4424042;32;20228;-84
2020/12/30 03:31:39;;;;;;;13.30;6.53;;;;;;;;;;4409152;32;20467;-84
2020/12/30 03:34:10;;;;;;;13.87;5.97;;;;;;;;;;4423330;32;20547;-84
2020/12/30 03:36:38;;;;;;;11.50;6.10;;;;;;;;;;4408516;32;20173;-84
2020/12/30 03:39:08;;;;;;;10.67;5.80;;;;;;;;;;4408803;32;20579;-84
2020/12/30 03:41:42;;;;;;;10.40;5.63;;;;;;;;;;4409220;32;20158;-84
2020/12/30 03:44:15;;;;;;;8.07;4.60;;;;;;;;;;4409070;32;20634;-84
2020/12/30 03:46:55;;;;;;;8.70;5.00;;;;;;;;;;4408867;32;20176;-85
2020/12/30 03:49:35;;;;;;;8.03;4.27;;;;;;;;;;4407461;32;20177;-85
2020/12/30 03:52:03;;;;;;;8.90;3.70;;;;;;;;;;4408056;32;20230;-84
2020/12/30 03:54:42;;;;;;;5.27;3.03;;;;;;;;;;4408675;32;20169;-84
2020/12/30 03:57:18;;;;;;;6.80;3.83;;;;;;;;;;4408698;32;20245;-84
2020/12/30 03:59:54;;;;;;;4.23;2.70;;;;;;;;;;4409505;32;20159;-84
2020/12/30 04:02:39;;;;;;;5.50;3.00;;;;;;;;;;4407602;32;20215;-84
2020/12/30 04:05:12;;;;;;;4.37;2.67;;;;;;;;;;4408291;32;20178;-84
2020/12/30 04:07:41;;;;;;;4.33;2.20;;;;;;;;;;4408693;32;20649;-84
2020/12/30 04:10:12;;;;;;;3.53;2.30;;;;;;;;;;4408422;32;20162;-85
2020/12/30 04:12:46;;;;;;;4.80;2.80;;;;;;;;;;4408421;32;20212;-84
2020/12/30 04:15:14;;;;;;;5.90;2.70;;;;;;;;;;4408775;32;20637;-84
2020/12/30 04:17:42;;;;;;;3.03;2.30;;;;;;;;;;4408747;32;20185;-84
2020/12/30 04:20:10;;;;;;;4.63;3.00;;;;;;;;;;4408178;32;20196;-85
2020/12/30 04:22:44;;;;;;;6.00;3.07;;;;;;;;;;4408334;32;20236;-84
2020/12/30 04:25:13;;;;;;;5.27;2.57;;;;;;;;;;4405738;32;20170;-84
2020/12/30 04:27:47;;;;;;;6.33;2.60;;;;;;;;;;4408090;32;20166;-84
2020/12/30 04:30:15;;;;;;;5.67;2.90;;;;;;;;;;4408298;32;20240;-84
2020/12/30 04:32:43;;;;;;;4.77;2.53;;;;;;;;;;4408533;32;20211;-85
2020/12/30 04:35:09;;;;;;;6.37;3.17;;;;;;;;;;4421680;32;20197;-84
2020/12/30 04:37:46;;;;;;;4.43;2.73;;;;;;;;;;4407974;32;20215;-85
2020/12/30 04:40:14;;;;;;;6.13;3.67;;;;;;;;;;4408187;32;20161;-84
2020/12/30 04:45:32;;;;;;;7.53;3.10;;;;;;;;;;4392709;32;20173;-84
2020/12/30 04:48:16;;;;;;;;;;;;;;;;;;;;;
2020/12/30 04:51:02;;;;;;;7.10;3.03;;;;;;;;;;4421431;32;20185;-86
2020/12/30 04:53:31;;;;;;;4.83;3.00;;;;;;;;;;4408421;32;20193;-85
2020/12/30 04:56:13;;;;;;;4.93;2.77;;;;;;;;;;4422426;32;20129;-86
2020/12/30 04:58:53;;;;;;;4.13;2.20;;;;;;;;;;4421919;32;20153;-86
2020/12/30 05:02:01;;;;;;;5.83;2.17;;;;;;;;;;4408113;32;20195;-86
2020/12/30 05:04:45;;;;;;;;;;;;;;;;;;;;;
2020/12/30 05:07:17;;;;;;;5.03;2.67;;;;;;;;;;4422027;32;20149;-86
2020/12/30 05:09:45;;;;;;;6.20;2.77;;;;;;;;;;4408141;32;20213;-86
2020/12/30 05:12:15;;;;;;;4.60;2.63;;;;;;;;;;4408151;32;20191;-86
2020/12/30 05:14:41;;;;;;;5.80;2.90;;;;;;;;;;4407368;32;20211;-86
2020/12/30 05:17:10;;;;;;;7.97;3.40;;;;;;;;;;4407142;32;20224;-86
2020/12/30 05:19:39;;;;;;;6.43;3.27;;;;;;;;;;4407374;32;20161;-86
2020/12/30 05:22:09;;;;;;;7.40;2.97;;;;;;;;;;4407653;32;20182;-86
2020/12/30 05:24:35;;;;;;;7.30;2.90;;;;;;;;;;4407631;32;20567;-86
2020/12/30 05:27:01;;;;;;;6.47;3.40;;;;;;;;;;4421257;32;20165;-86
2020/12/30 05:29:27;;;;;;;4.90;3.33;;;;;;;;;;4407540;32;20192;-86
2020/12/30 05:31:52;;;;;;;9.00;4.00;;;;;;;;;;4406974;32;20165;-86
2020/12/30 05:34:19;;;;;;;5.87;3.53;;;;;;;;;;4407009;32;20154;-87
2020/12/30 05:36:45;;;;;;;8.40;4.30;;;;;;;;;;4406902;32;20157;-87
2020/12/30 05:39:18;;;;;;;7.90;3.47;;;;;;;;;;4406958;32;20233;-86
2020/12/30 05:41:43;;;;;;;12.03;4.43;;;;;;;;;;4407202;32;20202;-86
2020/12/30 05:44:18;;;;;;;9.77;4.50;;;;;;;;;;4406772;32;20181;-85
2020/12/30 05:46:43;;;;;;;9.50;4.50;;;;;;;;;;4406819;32;20558;-87
2020/12/30 05:49:09;;;;;;;7.10;4.40;;;;;;;;;;4420745;32;20546;-86
2020/12/30 05:51:36;;;;;;;10.73;4.50;;;;;;;;;;4421160;32;20142;-86
2020/12/30 05:54:08;;;;;;;6.17;3.40;;;;;;;;;;4407236;32;20192;-86
2020/12/30 05:56:34;;;;;;;7.43;5.03;;;;;;;;;;4406709;32;20210;-86
2020/12/30 05:59:03;;;;;;;5.73;2.80;;;;;;;;;;4407198;32;20162;-86
2020/12/30 06:01:28;;;;;;;4.53;3.00;;;;;;;;;;4406594;32;20162;-86
2020/12/30 06:03:53;;;;;;;6.70;3.17;;;;;;;;;;4406687;32;20181;-85
2020/12/30 06:06:20;;;;;;;10.57;4.43;;;;;;;;;;4406875;32;20583;-85
2020/12/30 06:08:45;;;;;;;7.47;4.53;;;;;;;;;;4407029;32;20218;-86
2020/12/30 06:11:11;;;;;;;7.17;3.80;;;;;;;;;;4406804;32;20185;-87
2020/12/30 06:13:37;;;;;;;6.33;3.57;;;;;;;;;;4406475;32;20245;-86
2020/12/30 06:16:06;;;;;;;6.97;3.10;;;;;;;;;;4406973;32;20173;-87
2020/12/30 06:18:39;;;;;;;9.23;4.30;;;;;;;;;;4406681;32;20157;-87
2020/12/30 06:21:06;;;;;;;9.03;3.80;;;;;;;;;;4421336;32;20125;-87
2020/12/30 06:23:34;;;;;;;6.47;3.60;;;;;;;;;;4420957;32;20322;-87
2020/12/30 06:26:02;;;;;;;4.87;3.00;;;;;;;;;;4420254;32;20146;-87
2020/12/30 06:28:31;;;;;;;7.00;3.40;;;;;;;;;;4407121;32;20273;-87
2020/12/30 06:30:57;;;;;;;6.50;3.23;;;;;;;;;;4406463;32;20242;-87
2020/12/30 06:33:24;;;;;;;6.17;3.67;;;;;;;;;;4420504;32;20611;-86
2020/12/30 06:35:53;;;;;;;8.93;3.80;;;;;;;;;;4421555;32;20158;-88
2020/12/30 06:38:24;;;;;;;8.47;4.27;;;;;;;;;;4422141;32;20181;-87
2020/12/30 06:41:04;;;;;;;9.07;4.60;;;;;;;;;;4425461;32;20249;-87
2020/12/30 06:43:40;;;;;;;10.53;5.23;;;;;;;;;;4426790;32;20203;-88
2020/12/30 06:46:12;;;;;;;9.17;5.67;;;;;;;;;;4439118;32;20141;-88
2020/12/30 06:48:57;;;;;;;9.43;6.07;;;;;;;;;;4425007;32;20196;-87
2020/12/30 06:51:23;;;;;;;15.50;7.17;;;;;;;;;;4438906;32;20133;-85
2020/12/30 06:53:49;;;;;;;12.40;7.27;;;;;;;;;;4425269;32;20516;-86
2020/12/30 06:56:14;;;;;;;12.63;7.70;;;;;;;;;;4419798;32;20508;-87
2020/12/30 06:58:43;;;;;;;14.10;8.10;;;;;;;;;;4415904;32;20166;-86
2020/12/30 07:01:10;;;;;;;14.83;8.40;;;;;;;;;;4409213;32;20173;-86
2020/12/30 07:03:36;;;;;;;14.10;8.27;;;;;;;;;;4409167;32;20158;-86
2020/12/30 07:06:20;;;;;;;14.40;8.73;;;;;;;;;;4409609;32;20196;-87
2020/12/30 07:08:49;;;;;;;13.80;8.33;;;;;;;;;;4409450;32;20161;-86
2020/12/30 07:11:33;;;;;;;11.67;7.00;;;;;;;;;;4409469;32;20158;-86
2020/12/30 07:14:07;;;;;;;11.13;5.47;;;;;;;;;;4409953;32;20166;-85
2020/12/30 07:16:35;;;;;;;11.00;5.20;;;;;;;;;;4418867;32;20583;-86
2020/12/30 07:19:01;;;;;;;7.00;4.30;;;;;;;;;;4438239;32;20134;-84
2020/12/30 07:21:31;;;;;;;6.67;3.77;;;;;;;;;;4424389;32;20176;-85
2020/12/30 07:24:03;;;;;;;6.67;3.07;;;;;;;;;;4424472;32;20248;-85
2020/12/30 07:26:28;;;;;;;5.17;2.83;;;;;;;;;;4423803;32;20575;-86
2020/12/30 07:28:57;;;;;;;2.97;2.20;;;;;;;;;;4424043;32;20162;-85
2020/12/30 07:31:22;;;;;;;3.73;2.03;;;;;;;;;;4424341;32;20229;-86
2020/12/30 07:33:53;;;;;;;3.83;1.80;;;;;;;;;;4438009;32;20182;-86
2020/12/30 07:36:19;;;;;;;4.80;2.00;;;;;;;;;;4424030;32;20243;-85
2020/12/30 07:38:45;;;;;;;2.37;1.60;;;;;;;;;;4424028;32;20296;-85
2020/12/30 07:41:10;;;;;;;2.70;1.87;;;;;;;;;;4423930;32;20635;-86
2020/12/30 07:43:54;;;;;;;3.17;1.80;;;;;;;;;;4423913;32;20165;-85
2020/12/30 07:46:20;;;;;;;2.77;1.90;;;;;;;;;;4423828;32;20218;-85
2020/12/30 07:48:46;;;;;;;3.03;1.47;;;;;;;;;;4438008;32;20180;-85
2020/12/30 07:51:14;;;;;;;4.10;2.70;;;;;;;;;;4423321;32;20161;-84
2020/12/30 07:53:40;;;;;;;7.40;4.07;;;;;;;;;;4423471;32;20218;-84
2020/12/30 07:56:05;;;;;;;8.13;6.03;;;;;;;;;;4423547;32;20618;-84
2020/12/30 07:58:33;;;;;;;12.03;8.57;;;;;;;;;;4423691;32;20173;-85
2020/12/30 08:01:10;;;;;;;7.43;5.40;;;;;;;;;;4422528;32;20196;-85
2020/12/30 08:03:56;;;;;;;6.60;3.60;;;;;;;;;;4406809;32;20645;-84
2020/12/30 08:06:45;;;;;;;;;;;;;;;;;;;;;
2020/12/30 08:09:11;;;;;;;8.00;3.40;;;;;;;;;;4421232;32;20146;-85
2020/12/30 08:11:48;;;;;;;3.80;3.00;;;;;;;;;;4407215;32;20648;-85
2020/12/30 08:14:14;;;;;;;6.97;3.43;;;;;;;;;;4407668;32;20181;-84
2020/12/30 08:16:45;;;;;;;5.03;2.90;;;;;;;;;;4407604;32;20177;-85
2020/12/30 08:19:12;;;;;;;8.47;3.00;;;;;;;;;;4421862;32;20462;-84
2020/12/30 08:21:42;;;;;;;7.43;3.37;;;;;;;;;;4407242;32;20675;-85
2020/12/30 08:24:10;;;;;;;5.47;3.03;;;;;;;;;;4394391;32;20437;-86
2020/12/30 08:26:39;;;;;;;7.23;2.90;;;;;;;;;;4421647;32;20146;-86
2020/12/30 08:29:07;;;;;;;7.83;3.20;;;;;;;;;;4408249;32;20177;-86
2020/12/30 08:31:43;;;;;;;5.73;3.03;;;;;;;;;;4407873;32;20579;-85
2020/12/30 08:34:19;;;;;;;5.47;3.80;;;;;;;;;;4408193;32;20192;-86
2020/12/30 08:37:05;;;;;;;5.60;2.83;;;;;;;;;;4408421;32;20233;-85
2020/12/30 08:39:36;;;;;;;8.00;3.20;;;;;;;;;;4414403;32;20259;-86
2020/12/30 08:42:04;;;;;;;9.10;3.37;;;;;;;;;;4422912;32;20475;-85
2020/12/30 08:44:35;;;;;;;7.33;3.40;;;;;;;;;;4422830;32;20590;-85
2020/12/30 08:47:06;;;;;;;9.10;3.63;;;;;;;;;;4437728;32;20168;-85
2020/12/30 08:49:31;;;;;;;5.43;3.30;;;;;;;;;;4423183;32;20153;-85
2020/12/30 08:52:19;;;;;;;7.30;3.77;;;;;;;;;;4422774;32;20227;-85
2020/12/30 08:54:45;;;;;;;7.67;3.90;;;;;;;;;;4422474;32;20207;-85
2020/12/30 08:57:13;;;;;;;11.60;4.90;;;;;;;;;;4422746;32;20166;-86
2020/12/30 08:59:43;;;;;;;15.57;4.80;;;;;;;;;;4422708;32;20668;-87
2020/12/30 09:02:13;;;;;;;8.77;4.50;;;;;;;;;;4422078;32;20165;-87
2020/12/30 09:05:01;;;;;;;7.10;3.90;;;;;;;;;;4423024;32;20273;-86
2020/12/30 09:07:32;;;;;;;12.93;4.40;;;;;;;;;;4436380;32;20818;-85
2020/12/30 09:10:15;;;;;;;7.13;3.80;;;;;;;;;;4424811;32;20235;-87
2020/12/30 09:12:53;;;;;;;6.80;3.60;;;;;;;;;;4423131;32;20161;-87
2020/12/30 09:15:32;;;;;;;6.43;3.50;;;;;;;;;;4421199;32;20605;-87
2020/12/30 09:18:10;;;;;;;5.90;3.60;;;;;;;;;;4423155;32;20204;-87
2020/12/30 09:20:48;;;;;;;7.07;3.33;;;;;;;;;;4435860;32;20161;-86
2020/12/30 09:23:14;;;;;;;10.83;4.07;;;;;;;;;;4423025;32;20162;-87
2020/12/30 09:25:55;;;;;;;8.13;3.57;;;;;;;;;;4423133;32;20240;-87
2020/12/30 09:28:37;;;;;;;6.70;3.87;;;;;;;;;;4422649;32;20598;-86
2020/12/30 09:31:08;;;;;;;7.67;3.67;;;;;;;;;;4423012;32;20587;-87
2020/12/30 09:33:46;;;;;;;7.23;3.10;;;;;;;;;;4422338;32;20169;-86
2020/12/30 09:36:14;;;;;;;9.97;3.67;;;;;;;;;;4422610;32;20161;-87
2020/12/30 09:38:45;;;;;;;5.00;3.20;;;;;;;;;;4421839;32;20221;-86
2020/12/30 09:41:19;;;;;;;7.07;2.67;;;;;;;;;;4424502;32;20157;-85
2020/12/30 09:43:51;;;;;;;8.53;3.40;;;;;;;;;;4415285;32;20274;-84
2020/12/30 09:46:32;;;;;;;6.63;3.30;;;;;;;;;;4421736;32;20157;-87
2020/12/30 09:49:06;;;;;;;6.63;3.30;;;;;;;;;;4406883;32;20193;-87
2020/12/30 09:51:32;;;;;;;8.23;3.20;;;;;;;;;;4407038;32;20157;-88
2020/12/30 09:54:19;;;;;;;8.00;3.83;;;;;;;;;;4425474;32;20145;-88
2020/12/30 09:56:47;;;;;;;5.67;2.43;;;;;;;;;;4420502;32;20203;-87
2020/12/30 09:59:22;;;;;;;5.03;2.00;;;;;;;;;;4436223;32;20169;-87
2020/12/30 10:01:53;;;;;;;6.00;2.10;;;;;;;;;;4422769;32;20235;-88
2020/12/30 10:04:18;;;;;;;5.10;1.37;;;;;;;;;;4421830;32;20280;-86
2020/12/30 10:06:54;;;;;;;2.70;0.90;;;;;;;;;;4421694;32;20165;-86
2020/12/30 10:09:25;;;;;;;1.83;1.00;;;;;;;;;;4422324;32;20590;-87
2020/12/30 10:11:53;;;;;;;3.40;1.20;;;;;;;;;;4422302;32;20257;-87
2020/12/30 10:14:23;;;;;;;3.77;0.90;;;;;;;;;;4421770;32;20196;-86
2020/12/30 10:16:57;;;;;;;8.30;1.40;;;;;;;;;;4436541;32;20164;-86
2020/12/30 10:19:34;;;;;;;3.40;1.10;;;;;;;;;;4421251;32;20657;-86
2020/12/30 10:22:04;;;;;;;2.53;1.40;;;;;;;;;;4421835;32;20160;-86
2020/12/30 10:24:35;;;;;;;2.60;0.90;;;;;;;;;;4435588;32;20180;-87
2020/12/30 10:27:00;;;;;;;3.23;0.77;;;;;;;;;;4421855;32;20188;-86
2020/12/30 10:29:28;;;;;;;1.40;0.60;;;;;;;;;;4421571;32;20169;-86
2020/12/30 10:32:02;;;;;;;0.83;0.70;;;;;;;;;;4435359;32;20183;-86
2020/12/30 10:34:33;;;;;;;2.23;0.50;;;;;;;;;;4412422;32;20162;-85
2020/12/30 10:37:04;;;;;;;1.17;0.73;;;;;;;;;;4420080;32;20179;-86
2020/12/30 10:39:30;;;;;;;2.10;0.90;;;;;;;;;;4413451;32;20200;-87
2020/12/30 10:41:56;;;;;;;4.60;1.30;;;;;;;;;;4435735;32;20137;-82
2020/12/30 10:44:22;;;;;;;1.67;0.90;;;;;;;;;;4421516;32;20169;-84
2020/12/30 10:46:50;;;;;;;3.13;0.90;;;;;;;;;;4432224;32;20157;-85
2020/12/30 10:49:33;;;;;;;3.97;1.03;;;;;;;;;;4433814;32;20209;-86
2020/12/30 10:52:00;;;;;;;3.37;0.90;;;;;;;;;;4405616;32;20311;-86
2020/12/30 10:54:26;;;;;;;3.60;1.10;;;;;;;;;;4404966;32;20165;-86
2020/12/30 10:56:58;;;;;;;1.93;1.13;;;;;;;;;;4413411;32;20620;-87
2020/12/30 10:59:24;;;;;;;3.67;1.10;;;;;;;;;;4420087;32;20169;-85
2020/12/30 11:01:53;;;;;;;2.93;1.20;;;;;;;;;;4419722;32;20165;-86
2020/12/30 11:04:22;;;;;;;3.33;0.93;;;;;;;;;;4419866;32;21704;-87
2020/12/30 11:06:53;;;;;;;4.03;1.23;;;;;;;;;;4420096;32;20192;-85
2020/12/30 11:09:30;;;;;;;3.87;1.67;;;;;;;;;;4420142;32;20165;-85
2020/12/30 11:11:58;;;;;;;5.33;1.80;;;;;;;;;;4420624;32;20195;-85
2020/12/30 11:14:26;;;;;;;2.73;1.00;;;;;;;;;;4419669;32;20505;-84
2020/12/30 11:16:54;;;;;;;4.25;1.17;;;;;;;;;;4417626;32;20158;-87
2020/12/30 11:19:21;;;;;;;5.93;1.33;;;;;;;;;;4418197;32;20220;-86
2020/12/30 11:21:54;;;;;;;5.03;1.27;;;;;;;;;;4418564;32;20211;-85
2020/12/30 11:24:19;;;;;;;3.53;1.70;;;;;;;;;;4420906;32;20521;-86
2020/12/30 11:26:48;;;;;;;4.00;1.50;;;;;;;;;;4421310;32;20166;-86
2020/12/30 11:29:14;;;;;;;2.27;1.27;;;;;;;;;;4409003;32;20157;-86
2020/12/30 11:31:53;;;;;;;3.85;1.55;;;;;;;;;;4408592;32;20526;-87
2020/12/30 11:34:19;;;;;;;108.68;74.80;;;;;;;;;;4410186;32;20161;-87
2020/12/30 11:36:47;;;;;;;2.35;1.65;;;;;;;;;;4410194;32;20215;-86
2020/12/30 11:39:18;;;;;;;7.05;2.47;;;;;;;;;;4424118;32;20559;-86
2020/12/30 11:41:47;;;;;;;4.97;1.70;;;;;;;;;;4424248;32;20296;-86
2020/12/30 11:44:13;;;;;;;4.90;1.70;;;;;;;;;;4423758;32;20164;-86
2020/12/30 11:46:38;;;;;;;4.77;1.73;;;;;;;;;;4423641;32;20196;-86
2020/12/30 11:49:06;;;;;;;4.03;1.50;;;;;;;;;;4423506;32;20162;-86
2020/12/30 11:51:36;;;;;;;6.50;1.87;;;;;;;;;;4423658;32;20220;-86
2020/12/30 11:54:10;;;;;;;4.43;1.80;;;;;;;;;;4423875;32;20266;-88
2020/12/30 11:56:35;;;;;;;3.70;2.03;;;;;;;;;;4424150;32;20168;-88
2020/12/30 11:59:03;;;;;;;5.00;2.07;;;;;;;;;;4424121;32;20549;-87
2020/12/30 12:01:41;;;;;;;4.77;2.07;;;;;;;;;;4423711;32;20157;-87
2020/12/30 12:04:17;;;;;;;7.57;2.27;;;;;;;;;;4424105;32;20173;-86
2020/12/30 12:06:47;;;;;;;5.68;2.03;;;;;;;;;;4408048;32;20205;-87
2020/12/30 12:09:26;;;;;;;5.90;1.98;;;;;;;;;;4405465;32;20162;-87
2020/12/30 12:12:03;;;;;;;5.18;1.70;;;;;;;;;;4406380;32;20629;-88
2020/12/30 12:14:31;;;;;;;4.75;1.55;;;;;;;;;;4406639;32;20610;-87
2020/12/30 12:17:02;;;;;;;5.18;1.80;;;;;;;;;;4406194;32;20182;-86
2020/12/30 12:19:39;;;;;;;3.30;1.40;;;;;;;;;;4405708;32;20216;-85
2020/12/30 12:22:13;;;;;;;3.42;1.12;;;;;;;;;;4406192;32;20188;-86
2020/12/30 12:24:49;;;;;;;3.20;1.30;;;;;;;;;;4405974;32;20212;-86
2020/12/30 12:27:17;;;;;;;2.83;1.30;;;;;;;;;;4405362;32;20158;-85
2020/12/30 12:29:56;;;;;;;3.40;1.40;;;;;;;;;;4405281;32;20503;-85
2020/12/30 12:32:38;;;;;;;5.07;1.40;;;;;;;;;;4405492;32;20211;-85
2020/12/30 12:35:09;;;;;;;4.30;1.10;;;;;;;;;;4406031;32;20154;-85
2020/12/30 12:37:37;;;;;;;5.37;1.70;;;;;;;;;;4401437;32;20158;-85
2020/12/30 12:40:08;;;;;;;4.20;1.40;;;;;;;;;;4403305;32;20279;-86
2020/12/30 12:42:37;;;;;;;3.60;1.40;;;;;;;;;;4403293;32;20158;-86
2020/12/30 12:45:04;;;;;;;4.37;1.70;;;;;;;;;;4403707;32;20668;-85
2020/12/30 12:47:34;;;;;;;5.17;1.53;;;;;;;;;;4403586;32;20651;-85
2020/12/30 12:50:09;;;;;;;6.45;1.77;;;;;;;;;;4403637;32;20161;-86
2020/12/30 12:52:43;;;;;;;4.93;1.63;;;;;;;;;;4398737;32;20187;-85
2020/12/30 12:55:33;;;;;;;3.90;1.53;;;;;;;;;;4405336;32;20168;-85
2020/12/30 12:58:14;;;;;;;6.10;2.07;;;;;;;;;;4404838;32;20221;-85
2020/12/30 13:00:53;;;;;;;7.63;3.50;;;;;;;;;;4402492;32;20193;-85
2020/12/30 13:03:26;;;;;;;7.20;2.07;;;;;;;;;;4389080;32;20235;-85
2020/12/30 13:06:00;;;;;;;6.17;2.10;;;;;;;;;;4395004;32;20203;-85
2020/12/30 13:08:44;;;;;;;6.23;2.00;;;;;;;;;;4396406;32;20217;-88
2020/12/30 13:11:12;;;;;;;8.93;2.10;;;;;;;;;;4389667;32;20283;-84
2020/12/30 13:13:54;;;;;;;5.03;2.00;;;;;;;;;;4405373;32;20174;-86
2020/12/30 13:16:28;;;;;;;8.67;1.90;;;;;;;;;;4405740;32;20185;-87
2020/12/30 13:18:56;;;;;;;4.40;1.37;;;;;;;;;;4412882;32;20173;-84
2020/12/30 13:21:35;;;;;;;5.05;1.50;;;;;;;;;;4415633;32;20162;-86
2020/12/30 13:24:04;;;;;;;4.22;1.58;;;;;;;;;;4405320;32;20158;-86
2020/12/30 13:26:32;;;;;;;2.40;1.17;;;;;;;;;;4404941;32;20189;-88
2020/12/30 13:29:07;;;;;;;3.25;1.23;;;;;;;;;;4404762;32;20158;-87
2020/12/30 13:31:35;;;;;;;9.40;2.07;;;;;;;;;;4404554;32;20184;-86
2020/12/30 13:34:03;;;;;;;5.40;1.97;;;;;;;;;;4404664;32;20158;-86
2020/12/30 13:36:29;;;;;;;4.57;1.80;;;;;;;;;;4403814;32;20691;-87
2020/12/30 13:39:00;;;;;;;5.73;1.80;;;;;;;;;;4405367;32;20225;-87
2020/12/30 13:41:28;;;;;;;4.35;1.58;;;;;;;;;;4405924;32;20153;-87
2020/12/30 13:44:02;;;;;;;2.90;1.40;;;;;;;;;;4404334;32;20162;-87
2020/12/30 13:46:36;;;;;;;6.00;1.53;;;;;;;;;;4404620;32;20214;-84
2020/12/30 13:49:14;;;;;;;5.77;1.47;;;;;;;;;;4405481;32;20130;-86
2020/12/30 13:51:42;;;;;;;3.00;1.10;;;;;;;;;;4405916;32;20222;-85
2020/12/30 13:54:09;;;;;;;4.00;1.47;;;;;;;;;;4404222;32;20174;-87
2020/12/30 13:56:34;;;;;;;3.00;1.50;;;;;;;;;;4404031;32;20495;-85
2020/12/30 13:59:00;;;;;;;3.37;1.23;;;;;;;;;;4405884;32;20180;-85
2020/12/30 14:01:25;;;;;;;2.77;1.00;;;;;;;;;;4404458;32;20188;-86
2020/12/30 14:04:01;;;;;;;4.10;0.90;;;;;;;;;;4404165;32;20184;-85
2020/12/30 14:06:34;;;;;;;5.13;1.40;;;;;;;;;;4411198;32;20173;-86
2020/12/30 14:08:59;;;;;;;3.20;0.90;;;;;;;;;;4419509;32;20492;-86
2020/12/30 14:11:29;;;;;;;4.20;1.12;;;;;;;;;;4420645;32;20161;-86
2020/12/30 14:14:06;;;;;;;6.10;1.25;;;;;;;;;;4419324;32;20170;-86
2020/12/30 14:16:39;;;;;;;1.40;1.00;;;;;;;;;;4420580;32;20138;-86
2020/12/30 14:19:04;;;;;;;2.85;1.42;;;;;;;;;;4419256;32;20150;-86
2020/12/30 14:21:33;;;;;;;5.13;1.37;;;;;;;;;;4421316;32;20134;-84
2020/12/30 14:24:01;;;;;;;6.33;1.47;;;;;;;;;;4421713;32;20200;-84
2020/12/30 14:26:31;;;;;;;4.17;1.60;;;;;;;;;;4420831;32;20206;-84
2020/12/30 14:29:00;;;;;;;5.17;1.87;;;;;;;;;;4419352;32;20613;-85
2020/12/30 14:31:27;;;;;;;4.13;1.30;;;;;;;;;;4418777;32;20637;-84
2020/12/30 14:33:53;;;;;;;5.00;1.60;;;;;;;;;;4416836;32;20318;-84
2020/12/30 14:36:20;;;;;;;4.67;1.40;;;;;;;;;;4418597;32;20142;-84
2020/12/30 14:38:50;;;;;;;5.40;1.85;;;;;;;;;;4419048;32;20262;-84
2020/12/30 14:41:25;;;;;;;3.12;1.75;;;;;;;;;;4417646;32;20252;-84
2020/12/30 14:44:23;;;;;;;3.67;2.10;;;;;;;;;;4412578;32;20443;-85
2020/12/30 14:46:54;;;;;;;5.70;2.70;;;;;;;;;;4384517;32;20232;-84
2020/12/30 14:49:31;;;;;;;5.50;2.10;;;;;;;;;;4418246;32;20157;-85
2020/12/30 14:52:04;;;;;;;7.00;2.63;;;;;;;;;;4419485;32;20146;-86
2020/12/30 14:54:29;;;;;;;6.93;2.90;;;;;;;;;;4417919;32;20183;-86
2020/12/30 14:57:09;;;;;;;9.53;2.97;;;;;;;;;;4419551;32;20179;-85
2020/12/30 14:59:34;;;;;;;7.43;2.43;;;;;;;;;;4420081;32;20200;-86
2020/12/30 15:02:45;;;;;;;4.27;1.70;;;;;;;;;;4420931;32;20170;-86
2020/12/30 15:05:14;;;;;;;;;;;;;;;;;;;;;
2020/12/30 15:07:40;;;;;;;7.47;2.20;;;;;;;;;;4437435;32;20175;-82
2020/12/30 15:10:13;;;;;;;5.37;1.40;;;;;;;;;;4423352;32;20166;-84